Warning: Illegal string offset 'Champaign County' in /home/eastcent/public_html/nws-alerts.php on line 220

Nearby Weather Observations


KTIP - Rantoul, Illinois, USA
Distance from station: ENE 12mi, 19km
Updated: Wed, 07-Dec-2022 8:55pm CST
Mist, Clear
Mist, Clear
 Wind from ENE
Wind: ENE 5 mph , 7 km/h
Temperature: 37°F , 3°C
Wind Chill: 33°F , 1°C
Dew Point: 36°F , 2°C
Humidity: 93%
Barometer: 30.36 inHg , 1028.1 hPa
Summary: Mist
Clouds: Clear
Visibility: 2 1/2 miles , 4 km
2022/12/08 02:55 KTIP 080255Z AUTO 07004KT 2 1/2SM BR CLR 03/02 A3036 RMK AO2 T00250022
KCMI - Champaign/Urbana, Illinois, USA
Distance from station: SSE 14mi, 22km
Updated: Wed, 07-Dec-2022 8:53pm CST
Mist, Clear
Mist, Clear
 Wind from NE
Wind: NE 7 mph , 11 km/h
Temperature: 39°F , 4°C
Wind Chill: 34°F , 1°C
Dew Point: 37°F , 3°C
Humidity: 93%
Barometer: 30.36 inHg , 1028.1 hPa
Summary: Mist
Clouds: Clear
Visibility: 4 miles , 6 km
2022/12/08 02:53 KCMI 080253Z 05006KT 4SM BR CLR 04/03 A3036 RMK AO2 SLP286 T00390028 51015
 
KBMI - Bloomington/Norm, Illinois, USA
Distance from station: WNW 34mi, 55km
Updated: Wed, 07-Dec-2022 8:56pm CST
Light rain, Fog, Overcast
Light rain, Fog, Overcast
 Wind from N
Wind: N 8 mph , 13 km/h
Temperature: 36°F , 2°C
Wind Chill: 30°F , -1°C
Dew Point: 36°F , 2°C
Humidity: 100%
Barometer: 30.37 inHg , 1028.4 hPa
Summary: Light rain, Fog
Clouds: Overcast
Visibility: 1/4 mile , 0.4 km
Cloud details: Overcast 200 ft
2022/12/08 02:56 KBMI 080256Z 36007KT 1/4SM R20/1800V2000FT -RA FG OVC002 02/02 A3037 RMK AO2 SLP288 P0000 60000 T00220022 51014
KDEC - Decatur, Illinois, USA
Distance from station: SW 37mi, 60km
Updated: Wed, 07-Dec-2022 8:54pm CST
Mist, Clear
Mist, Clear
 Wind from N
Wind: N 6 mph , 9 km/h
Temperature: 37°F , 3°C
Wind Chill: 32°F , 0°C
Dew Point: 37°F , 3°C
Humidity: 100%
Barometer: 30.36 inHg , 1028.1 hPa
Summary: Mist
Clouds: Clear
Visibility: 3 miles , 5 km
2022/12/08 02:54 KDEC 080254Z 35005KT 3SM BR CLR 03/03 A3036 RMK AO2 SLP285 T00330033 51013
 
KDNV - Danville, Illinois, USA
Distance from station: E 40mi, 65km
Updated: Wed, 07-Dec-2022 8:55pm CST
Mist, Partly cloudy
Mist, Partly cloudy
 Wind from N
Wind: N 5 mph , 7 km/h
Temperature: 39°F , 4°C
Wind Chill: 35°F , 2°C
Dew Point: 37°F , 3°C
Humidity: 93%
Barometer: 30.37 inHg , 1028.4 hPa
Summary: Mist
Clouds: Partly cloudy
Visibility: 2 1/2 miles , 4 km
Cloud details: Partly cloudy 900 ft
2022/12/08 02:55 KDNV 080255Z AUTO 01004KT 2 1/2SM BR SCT009 04/03 A3037 RMK AO2 T00360027
KAAA - Lincoln, Illinois, USA
Distance from station: W 52mi, 83km
Updated: Wed, 07-Dec-2022 8:55pm CST
Mist, Clear
Mist, Clear
 Wind from N
Wind: N 3 mph , 6 km/h
Temperature: 37°F , 3°C
Dew Point: 37°F , 3°C
Humidity: 100%
Barometer: 30.37 inHg , 1028.4 hPa
Summary: Mist
Clouds: Clear
Visibility: 2 miles , 3 km
2022/12/08 02:55 KAAA 080255Z AUTO 36003KT 2SM BR CLR 03/03 A3037 RMK AO2 T00250025
 
KMTO - Mattoon/Charlest, Illinois, USA
Distance from station: S 52mi, 84km
Updated: Wed, 07-Dec-2022 8:53pm CST
Fog, Clear
Fog, Clear
 Wind from calm
Wind: Calm
Temperature: 37°F , 3°C
Dew Point: 37°F , 3°C
Humidity: 100%
Barometer: 30.35 inHg , 1027.8 hPa
Summary: Fog
Clouds: Clear
Visibility: 1/2 mile , 0.8 km
2022/12/08 02:53 KMTO 080253Z AUTO 00000KT 1/2SM FG CLR 03/03 A3035 RMK AO2 SLP281 T00330028 51014
KSPI - Springfield, Illinois, USA
Distance from station: WSW 74mi, 120km
Updated: Wed, 07-Dec-2022 8:52pm CST
Fog, Overcast
Fog, Overcast
 Wind from calm
Wind: Calm
Temperature: 34°F , 1°C
Dew Point: 34°F , 1°C
Humidity: 100%
Barometer: 30.36 inHg , 1028.1 hPa
Summary: Fog
Clouds: Overcast
Visibility: 1/4 mile , 0.4 km
Cloud details: Overcast 100 ft
2022/12/08 02:52 KSPI 080252Z 00000KT 1/4SM R04/0800FT FG VV001 01/01 A3036 RMK AO2 SLP286 60000 T00110011 50012
 
KLAF - Lafayette, Indiana, USA
Distance from station: E 76mi, 123km
Updated: Wed, 07-Dec-2022 8:54pm CST
Mist, Overcast
Mist, Overcast
 Wind from N
Wind: N 6 mph , 9 km/h
Temperature: 39°F , 4°C
Wind Chill: 35°F , 2°C
Dew Point: 37°F , 3°C
Humidity: 93%
Barometer: 30.35 inHg , 1027.8 hPa
Summary: Mist
Clouds: Overcast
Visibility: 4 miles , 6 km
Cloud details: Overcast 1800 ft
2022/12/08 02:54 KLAF 080254Z 36005KT 4SM BR OVC018 04/03 A3035 RMK AO2 SLP282 T00390028 50013
KPIA - Peoria, Illinois, USA
Distance from station: WNW 76mi, 123km
Updated: Wed, 07-Dec-2022 8:54pm CST
Mostly cloudy
Mostly cloudy
 Wind from NNE
Wind: NNE 3 mph , 6 km/h
Temperature: 39°F , 4°C
Dew Point: 39°F , 4°C
Humidity: 100%
Barometer: 30.37 inHg , 1028.4 hPa
Clouds: Mostly cloudy
Visibility: 7 miles , 11 km
Cloud details: Mostly cloudy 600 ft
2022/12/08 02:54 KPIA 080254Z 03003KT 7SM BKN006 04/04 A3037 RMK AO2 SLP290 T00390039 51015
 
KHUF - Terre Haute, Indiana, USA
Distance from station: SE 77mi, 124km
Updated: Wed, 07-Dec-2022 8:53pm CST
Mist, Clear
Mist, Clear
 Wind from calm
Wind: Calm
Temperature: 37°F , 3°C
Dew Point: 36°F , 2°C
Humidity: 93%
Barometer: 30.35 inHg , 1027.8 hPa
Summary: Mist
Clouds: Clear
Visibility: 5 miles , 8 km
2022/12/08 02:53 KHUF 080253Z 00000KT 5SM BR CLR 03/02 A3035 RMK AO2 SLP282 T00280017 53009
K1H2 - Effingham, Illinois, USA
Distance from station: S 80mi, 129km
Updated: Wed, 07-Dec-2022 8:55pm CST
Mist, Clear
Mist, Clear
 Wind from NNW
Wind: NNW 5 mph , 7 km/h
Temperature: 39°F , 4°C
Wind Chill: 35°F , 2°C
Dew Point: 37°F , 3°C
Humidity: 93%
Barometer: 30.37 inHg , 1028.4 hPa
Summary: Mist
Clouds: Clear
Visibility: 5 miles , 8 km
2022/12/08 02:55 K1H2 080255Z AUTO 34004KT 5SM BR CLR 04/03 A3037 RMK AO2 T00400031
 
KIND - Indianapolis, Indiana, USA
Distance from station: ESE 117mi, 133km
Updated: Wed, 07-Dec-2022 8:54pm CST
Mostly cloudy
Mostly cloudy
 Wind from N
Wind: N 5 mph , 7 km/h
Temperature: 39°F , 4°C
Wind Chill: 35°F , 2°C
Dew Point: 37°F , 3°C
Humidity: 93%
Barometer: 30.34 inHg , 1027.4 hPa
Clouds: Mostly cloudy
Visibility: 7 miles , 11 km
Cloud details: Mostly cloudy 24000 ft
2022/12/08 02:54 KIND 080254Z 35004KT 7SM BKN240 04/03 A3034 RMK AO2 SLP278 T00440028 51010
KORD - Chicago O'hare, Illinois, USA
Distance from station: N 126mi, 203km
Updated: Wed, 07-Dec-2022 8:51pm CST
Mostly cloudy
Mostly cloudy
 Wind from N
Wind: N 14 mph , 22 km/h
Temperature: 39°F , 4°C
Wind Chill: 31°F , -1°C
Dew Point: 34°F , 1°C
Humidity: 81%
Barometer: 30.37 inHg , 1028.4 hPa
Clouds: Mostly cloudy
Visibility: 7 miles , 11 km
Cloud details: Mostly cloudy 1500 ft
Mostly cloudy 2600 ft
2022/12/08 02:51 KORD 080251Z 01012KT 7SM BKN015 BKN026 04/01 A3037 RMK AO2 SLP290 T00390006 51014
 
KSTL - St. Louis, Missouri, USA
Distance from station: SW 150mi, 185km
Updated: Wed, 07-Dec-2022 8:51pm CST
Overcast
Overcast
 Wind from ENE
Wind: ENE 6 mph , 9 km/h
Temperature: 48°F , 9°C
Wind Chill: 45°F , 7°C
Dew Point: 43°F , 6°C
Humidity: 82%
Barometer: 30.33 inHg , 1027.1 hPa
Clouds: Overcast
Visibility: 7 miles , 11 km
Cloud details: Overcast 8500 ft
2022/12/08 02:51 KSTL 080251Z 07005KT 7SM OVC085 09/06 A3033 RMK AO2 SLP274 T00890056 51008